Time;durP1;ratioP1;P1;durP2;ratioP2;P2;SDS_P1;SDS_P2;PMS_P1;PMS_P2;Temp;Humidity;BMP_temperature;BMP_pressure;BME280_temperature;BME280_humidity;BME280_pressure;Samples;Min_cycle;Max_cycle;Signal;HPM_P1;HPM_P2
2021/12/01 00:00:52;;;;;;;5.40;2.50;;;;;;;1.84;85.37;93533.00;5008351;28;20049;-67
2021/12/01 00:03:20;;;;;;;5.32;1.48;;;;;;;1.85;85.00;93526.47;5007749;28;20057;-68
2021/12/01 00:05:48;;;;;;;3.50;1.60;;;;;;;1.74;85.76;93522.84;5007963;28;20136;-69
2021/12/01 00:08:16;;;;;;;7.77;2.80;;;;;;;1.71;86.17;93537.09;5007831;28;20100;-68
2021/12/01 00:10:43;;;;;;;4.03;1.50;;;;;;;1.67;86.28;93537.06;5006108;28;20506;-67
2021/12/01 00:13:15;;;;;;;8.32;2.40;;;;;;;1.52;87.47;93513.69;5007903;28;20085;-66
2021/12/01 00:15:45;;;;;;;2.45;1.15;;;;;;;1.49;87.51;93517.91;5008307;28;20050;-68
2021/12/01 00:18:12;;;;;;;6.30;3.20;;;;;;;1.50;87.65;93511.34;5007136;28;20108;-66
2021/12/01 00:20:39;;;;;;;5.03;2.40;;;;;;;1.56;87.44;93512.56;5007767;28;20050;-67
2021/12/01 00:23:08;;;;;;;11.02;4.03;;;;;;;1.47;88.36;93508.59;5007017;28;20077;-67
2021/12/01 00:25:39;;;;;;;7.43;2.65;;;;;;;1.40;88.58;93504.66;5007291;28;20071;-68
2021/12/01 00:28:07;;;;;;;5.50;1.77;;;;;;;1.36;88.55;93506.53;5020532;28;20049;-67
2021/12/01 00:30:34;;;;;;;4.10;1.55;;;;;;;1.40;88.46;93509.28;5027394;28;20524;-69
2021/12/01 00:33:00;;;;;;;4.97;2.20;;;;;;;1.37;89.01;93499.22;5026421;28;20459;-67
2021/12/01 00:35:27;;;;;;;5.88;2.85;;;;;;;1.31;89.20;93487.16;5027355;28;20049;-66
2021/12/01 00:37:54;;;;;;;6.97;3.50;;;;;;;1.32;89.74;93494.13;5024466;28;20379;-68
2021/12/01 00:40:21;;;;;;;4.13;1.92;;;;;;;1.26;89.50;93488.25;5013656;28;20116;-68
2021/12/01 00:42:48;;;;;;;8.75;2.85;;;;;;;1.19;90.11;93486.25;5011758;28;20046;-69
2021/12/01 00:45:19;;;;;;;6.97;2.53;;;;;;;1.22;90.22;93471.22;4993381;28;20046;-68
2021/12/01 00:47:50;;;;;;;4.00;1.73;;;;;;;1.23;90.35;93485.50;5011535;28;20037;-65
2021/12/01 00:50:23;;;;;;;5.70;3.20;;;;;;;1.22;90.23;93475.84;5013590;28;20049;-68
2021/12/01 00:52:54;;;;;;;6.40;3.20;;;;;;;1.24;90.04;93474.34;5013615;28;20060;-69
2021/12/01 00:55:22;;;;;;;4.72;2.47;;;;;;;1.27;90.16;93465.50;5030508;28;20548;-68
2021/12/01 00:57:50;;;;;;;6.83;2.40;;;;;;;1.22;90.17;93460.41;5030149;28;20037;-68
2021/12/01 01:00:20;;;;;;;6.43;2.55;;;;;;;1.22;90.38;93459.63;5028639;28;20049;-68
2021/12/01 01:02:47;;;;;;;3.90;1.98;;;;;;;1.27;90.17;93457.38;5030055;28;20107;-62
2021/12/01 01:05:14;;;;;;;4.43;2.00;;;;;;;1.24;90.40;93454.63;5030036;28;20045;-68
2021/12/01 01:07:41;;;;;;;5.32;2.30;;;;;;;1.28;89.92;93450.81;5029263;28;20041;-68
2021/12/01 01:18:38;;;;;;;5.32;1.98;;;;;;;1.42;89.22;93425.13;5029364;28;20073;-65
2021/12/01 01:21:06;;;;;;;6.70;2.28;;;;;;;1.44;89.08;93412.00;5029716;28;20044;-67
2021/12/01 01:23:34;;;;;;;3.40;1.60;;;;;;;1.44;89.11;93412.78;5029345;28;20396;-67
2021/12/01 01:26:03;;;;;;;5.78;1.98;;;;;;;1.52;88.73;93414.41;5029550;28;20042;-66
2021/12/01 01:28:29;;;;;;;6.22;2.83;;;;;;;1.59;88.14;93421.84;5029382;28;20050;-67
2021/12/01 01:30:58;;;;;;;2.97;1.30;;;;;;;1.65;87.87;93412.25;5029550;28;20050;-68
2021/12/01 01:33:25;;;;;;;3.53;1.50;;;;;;;1.71;87.30;93415.38;5029277;28;20115;-68
2021/12/01 01:35:52;;;;;;;4.50;1.70;;;;;;;1.72;87.04;93406.09;5029481;28;20045;-68
2021/12/01 01:38:19;;;;;;;4.38;1.40;;;;;;;1.68;87.18;93411.47;5011247;28;20601;-67
2021/12/01 01:40:46;;;;;;;3.33;1.50;;;;;;;1.65;87.75;93411.44;5029584;28;20083;-66
2021/12/01 01:43:13;;;;;;;2.67;1.45;;;;;;;1.66;87.30;93407.59;5029289;28;20643;-67
2021/12/01 01:45:40;;;;;;;6.57;1.98;;;;;;;1.65;87.71;93401.41;5029111;28;20065;-66
2021/12/01 01:48:13;;;;;;;5.93;1.70;;;;;;;1.62;87.83;93414.91;5029059;28;20095;-67
2021/12/01 01:50:41;;;;;;;14.00;3.17;;;;;;;1.62;88.21;93409.50;5028781;28;20034;-68
2021/12/01 01:53:16;;;;;;;5.97;2.22;;;;;;;1.66;87.47;93394.84;5028819;28;20052;-67
2021/12/01 01:55:47;;;;;;;10.18;3.78;;;;;;;1.83;86.96;93379.16;5028971;28;20426;-67
2021/12/01 01:58:16;;;;;;;8.57;2.80;;;;;;;1.82;86.81;93385.72;5028849;28;20111;-67
2021/12/01 02:03:16;;;;;;;9.85;3.10;;;;;;;1.84;87.23;93373.38;5027335;28;20437;-68
2021/12/01 02:05:44;;;;;;;11.63;3.22;;;;;;;1.80;87.09;93365.22;5029023;28;20045;-68
2021/12/01 02:08:19;;;;;;;8.35;2.50;;;;;;;1.81;87.12;93360.56;5028629;28;20045;-68
2021/12/01 02:10:51;;;;;;;21.67;5.00;;;;;;;1.76;87.13;93364.41;5028845;28;20049;-66
2021/12/01 02:13:19;;;;;;;7.50;2.43;;;;;;;1.60;87.83;93361.94;5028564;28;20045;-68
2021/12/01 02:15:49;;;;;;;4.85;2.08;;;;;;;1.57;88.50;93354.59;5028907;28;20037;-68
2021/12/01 02:18:15;;;;;;;25.48;5.40;;;;;;;1.58;88.83;93342.59;5027924;28;20095;-67
2021/12/01 02:21:16;;;;;;;5.15;2.00;;;;;;;1.60;88.44;93344.94;5028062;28;20049;-68
2021/12/01 02:23:47;;;;;;;3.08;1.42;;;;;;;1.55;89.10;93343.38;5010748;28;20491;-67
2021/12/01 02:26:17;;;;;;;9.33;2.30;;;;;;;1.64;88.75;93342.28;5028549;28;20071;-67
2021/12/01 02:28:46;;;;;;;5.63;1.75;;;;;;;1.78;88.15;93348.59;5028355;28;20042;-68
2021/12/01 02:31:13;;;;;;;8.60;2.30;;;;;;;1.85;87.78;93338.97;5028358;28;20107;-66
2021/12/01 02:33:41;;;;;;;3.50;1.40;;;;;;;1.91;87.24;93335.56;5028252;28;20037;-67
2021/12/01 02:36:09;;;;;;;7.00;2.35;;;;;;;1.99;87.07;93331.75;5010940;28;20045;-65
2021/12/01 02:38:37;;;;;;;5.23;1.60;;;;;;;1.99;86.97;93322.84;5028033;28;20053;-66
2021/12/01 02:41:04;;;;;;;8.98;3.40;;;;;;;1.98;87.38;93313.97;5028477;28;20045;-67
2021/12/01 02:43:31;;;;;;;21.23;5.68;;;;;;;2.03;87.15;93314.75;5028304;28;20053;-65
2021/12/01 02:45:58;;;;;;;3.28;1.40;;;;;;;2.00;86.94;93302.75;5028230;28;20057;-67
2021/12/01 02:48:25;;;;;;;6.13;1.90;;;;;;;1.98;87.37;93296.94;5028034;28;20049;-68
2021/12/01 02:50:54;;;;;;;2.20;0.90;;;;;;;1.96;87.52;93283.03;5028131;28;20038;-67
2021/12/01 02:53:23;;;;;;;2.30;1.17;;;;;;;2.00;87.59;93279.16;5027840;28;20360;-68
2021/12/01 02:55:56;;;;;;;6.03;2.30;;;;;;;2.11;87.20;93262.22;5028460;28;20057;-67
2021/12/01 02:58:25;;;;;;;8.52;3.13;;;;;;;2.17;86.74;93271.53;5027968;28;20482;-67
2021/12/01 03:00:54;;;;;;;6.40;2.42;;;;;;;2.18;86.86;93263.03;5028418;28;20132;-67
2021/12/01 03:03:22;;;;;;;2.70;1.00;;;;;;;2.20;87.00;93259.97;5027846;28;20073;-65
2021/12/01 03:05:50;;;;;;;2.00;0.95;;;;;;;2.20;87.21;93260.75;5028074;28;20068;-66
2021/12/01 03:08:19;;;;;;;2.90;1.55;;;;;;;2.18;87.24;93264.97;5027464;28;20095;-67
2021/12/01 03:10:49;;;;;;;2.67;1.20;;;;;;;2.25;86.72;93248.75;5028238;28;20087;-67
2021/12/01 03:13:17;;;;;;;2.10;1.00;;;;;;;2.20;87.62;93249.91;5027237;28;20107;-66
2021/12/01 03:15:46;;;;;;;2.07;0.93;;;;;;;2.10;87.82;93245.22;5028383;28;20120;-66
2021/12/01 03:18:13;;;;;;;2.30;0.93;;;;;;;2.13;87.53;93239.06;5010148;28;20073;-67
2021/12/01 03:20:41;;;;;;;3.03;1.55;;;;;;;2.15;87.80;93239.47;5027511;28;20528;-67
2021/12/01 03:23:08;;;;;;;2.72;1.30;;;;;;;2.24;87.50;93227.50;5010177;28;20038;-66
2021/12/01 03:25:35;;;;;;;2.72;1.40;;;;;;;2.28;87.28;93239.91;5027553;28;20049;-65
2021/12/01 03:28:03;;;;;;;2.40;1.03;;;;;;;2.22;87.66;93221.69;5027895;28;20045;-67
2021/12/01 03:30:34;;;;;;;2.30;1.30;;;;;;;2.25;87.92;93218.22;5028619;28;20061;-68
2021/12/01 03:33:01;;;;;;;2.60;1.35;;;;;;;2.27;87.34;93211.25;5031795;28;20042;-66
2021/12/01 03:35:28;;;;;;;3.17;1.65;;;;;;;2.24;87.78;93209.31;5013775;28;20565;-67
2021/12/01 03:37:56;;;;;;;3.10;1.42;;;;;;;2.27;87.30;93181.47;5031899;28;20099;-66
2021/12/01 03:40:22;;;;;;;2.53;1.30;;;;;;;2.34;87.19;93191.59;5013668;28;20042;-68
2021/12/01 03:42:49;;;;;;;3.08;1.67;;;;;;;2.26;88.01;93174.53;5031708;28;20049;-67
2021/12/01 03:45:17;;;;;;;5.55;1.77;;;;;;;2.31;87.36;93181.50;5029616;28;20108;-66
2021/12/01 03:47:45;;;;;;;3.97;1.75;;;;;;;2.32;87.74;93183.84;5031627;28;20057;-65
2021/12/01 03:50:12;;;;;;;3.20;1.80;;;;;;;2.26;87.78;93188.06;5031494;28;20057;-66
2021/12/01 03:52:38;;;;;;;2.70;1.40;;;;;;;2.26;87.85;93173.75;5031314;28;20041;-67
2021/12/01 03:55:07;;;;;;;4.43;1.85;;;;;;;2.30;87.88;93171.84;5031188;28;20033;-68
2021/12/01 03:57:34;;;;;;;5.22;2.83;;;;;;;2.33;87.99;93168.34;5031052;28;20053;-68
2021/12/01 04:00:02;;;;;;;3.30;1.77;;;;;;;2.26;88.21;93174.53;5031186;28;20041;-68
2021/12/01 04:02:28;;;;;;;2.72;1.42;;;;;;;2.24;88.31;93163.31;5029609;28;20449;-68
2021/12/01 04:04:55;;;;;;;3.23;1.60;;;;;;;2.17;88.90;93150.53;5031438;28;20049;-66
2021/12/01 04:07:22;;;;;;;3.00;1.80;;;;;;;2.15;88.89;93152.84;5030932;28;20068;-68
2021/12/01 04:09:49;;;;;;;2.40;1.38;;;;;;;2.14;89.73;93148.56;5031469;28;20072;-67
2021/12/01 04:12:15;;;;;;;4.05;1.38;;;;;;;2.10;89.74;93145.06;5030617;28;20099;-66
2021/12/01 04:14:42;;;;;;;4.00;1.90;;;;;;;2.07;90.26;93139.63;5031157;28;20096;-68
2021/12/01 04:17:09;;;;;;;4.47;2.40;;;;;;;2.09;89.96;93145.44;5029380;28;20050;-68
2021/12/01 04:19:36;;;;;;;3.50;1.70;;;;;;;2.12;90.10;93137.34;5030409;28;20440;-67
2021/12/01 04:22:03;;;;;;;3.70;1.80;;;;;;;2.20;89.91;93136.22;5030559;28;20107;-67
2021/12/01 04:24:30;;;;;;;4.10;1.50;;;;;;;2.19;89.84;93137.38;5030354;28;20050;-67
2021/12/01 04:26:57;;;;;;;2.83;1.60;;;;;;;2.19;89.87;93128.47;5030618;28;20091;-68
2021/12/01 04:29:26;;;;;;;3.73;1.83;;;;;;;2.17;90.05;93118.03;5030140;28;20449;-69
2021/12/01 04:31:52;;;;;;;4.15;2.00;;;;;;;2.20;89.95;93111.84;5030706;28;20041;-68
2021/12/01 04:34:22;;;;;;;3.67;2.08;;;;;;;2.33;89.77;93103.38;5029993;28;20053;-67
2021/12/01 04:36:50;;;;;;;3.25;1.60;;;;;;;2.37;89.00;93099.53;5012802;28;20202;-68
2021/12/01 04:39:18;;;;;;;6.60;3.25;;;;;;;2.47;89.06;93097.22;5029366;28;20046;-68
2021/12/01 04:41:52;;;;;;;3.77;1.90;;;;;;;2.53;87.81;93099.16;5029708;28;20495;-66
2021/12/01 04:44:20;;;;;;;3.85;1.77;;;;;;;2.51;87.88;93096.06;5029831;28;20107;-67
2021/12/01 04:46:49;;;;;;;3.50;1.90;;;;;;;2.49;87.72;93090.25;5030423;28;20487;-66
2021/12/01 04:49:19;;;;;;;4.45;2.08;;;;;;;2.51;87.86;93084.47;5029516;28;20081;-65
2021/12/01 04:51:56;;;;;;;3.20;1.58;;;;;;;2.51;87.87;93084.47;5030272;28;20053;-65
2021/12/01 04:54:25;;;;;;;3.07;1.40;;;;;;;2.47;87.91;93089.09;5029499;28;20064;-66
2021/12/01 04:56:53;;;;;;;3.22;1.40;;;;;;;2.42;88.58;93084.06;5030460;28;20055;-66
2021/12/01 04:59:21;;;;;;;2.38;1.08;;;;;;;2.39;87.96;93074.75;5029667;28;20499;-66
2021/12/01 05:01:52;;;;;;;2.30;1.02;;;;;;;2.57;87.09;93075.56;5030394;28;20041;-65
2021/12/01 05:04:20;;;;;;;3.05;1.20;;;;;;;2.58;87.38;93074.41;5029242;28;20120;-65
2021/12/01 05:06:46;;;;;;;2.90;1.10;;;;;;;2.56;86.82;93073.25;5030067;28;20045;-65
2021/12/01 05:09:13;;;;;;;2.40;1.02;;;;;;;2.67;86.56;93075.97;5029687;28;20046;-67
2021/12/01 05:11:40;;;;;;;2.42;1.40;;;;;;;2.60;86.90;93069.38;5029603;28;20116;-65
2021/12/01 05:14:10;;;;;;;3.20;1.10;;;;;;;2.64;86.74;93065.94;5029798;28;20075;-65
2021/12/01 05:16:39;;;;;;;2.20;0.90;;;;;;;2.71;85.81;93068.63;5029415;28;20100;-65
2021/12/01 05:19:06;;;;;;;2.60;1.20;;;;;;;2.77;85.62;93069.78;5029544;28;20053;-66
2021/12/01 05:21:34;;;;;;;2.13;1.00;;;;;;;2.74;85.59;93057.78;5029265;28;20119;-66
2021/12/01 05:24:00;;;;;;;2.42;1.13;;;;;;;2.77;85.38;93054.28;5029917;28;20046;-66
2021/12/01 05:26:27;;;;;;;2.85;1.00;;;;;;;2.77;85.19;93045.41;5029053;28;20042;-66
2021/12/01 05:28:54;;;;;;;1.98;0.85;;;;;;;2.79;85.58;93056.63;5029352;28;20164;-65
2021/12/01 05:31:21;;;;;;;1.90;0.90;;;;;;;2.82;84.86;93049.66;5028785;28;20045;-64
2021/12/01 05:33:47;;;;;;;3.03;1.00;;;;;;;2.90;84.14;93045.81;5029414;28;20041;-65
2021/12/01 05:36:15;;;;;;;1.77;0.75;;;;;;;2.92;84.12;93049.66;5028084;28;20057;-66
2021/12/01 05:38:42;;;;;;;1.98;0.90;;;;;;;2.96;83.53;93045.00;5029088;28;20099;-65
2021/12/01 05:41:09;;;;;;;1.80;0.80;;;;;;;2.96;83.73;93036.13;5028973;28;20041;-66
2021/12/01 05:43:36;;;;;;;1.73;0.80;;;;;;;2.94;83.85;93030.31;5027379;28;20041;-64
2021/12/01 05:46:03;;;;;;;1.70;0.60;;;;;;;2.98;83.27;93029.13;5027704;28;20045;-60
2021/12/01 05:48:30;;;;;;;2.92;1.05;;;;;;;2.96;82.99;93014.44;5028732;28;20037;-65
2021/12/01 05:50:57;;;;;;;5.80;1.73;;;;;;;2.87;83.79;93005.91;5028804;28;20442;-66
2021/12/01 05:53:23;;;;;;;7.40;1.88;;;;;;;2.84;83.60;93004.75;5028113;28;20123;-67
2021/12/01 05:55:51;;;;;;;6.27;2.93;;;;;;;2.84;83.26;93003.97;5028821;28;20107;-66
2021/12/01 05:58:18;;;;;;;4.07;1.55;;;;;;;2.93;81.94;93010.53;5028108;28;20101;-66
2021/12/01 06:00:44;;;;;;;3.53;1.48;;;;;;;2.93;81.88;92999.72;5028976;28;20049;-66
2021/12/01 06:03:11;;;;;;;1.67;0.73;;;;;;;3.00;81.13;93002.41;5028697;28;20045;-65
2021/12/01 06:05:39;;;;;;;2.60;0.95;;;;;;;2.97;81.70;93005.13;5028234;28;20049;-64
2021/12/01 06:08:06;;;;;;;1.73;0.60;;;;;;;2.99;80.90;93000.84;5028553;28;20112;-66
2021/12/01 06:10:33;;;;;;;2.47;1.08;;;;;;;2.98;81.10;93009.41;5028012;28;20184;-66
2021/12/01 06:13:00;;;;;;;2.78;1.00;;;;;;;3.00;80.45;92993.53;5028710;28;20045;-66
2021/12/01 06:15:29;;;;;;;3.90;1.30;;;;;;;3.00;80.46;92993.53;5028055;28;20042;-64
2021/12/01 06:17:58;;;;;;;2.80;1.30;;;;;;;2.87;81.05;93008.63;5028961;28;20055;-65
2021/12/01 06:20:26;;;;;;;1.60;0.67;;;;;;;2.89;80.88;93009.78;5027971;28;20046;-66
2021/12/01 06:22:53;;;;;;;1.90;0.73;;;;;;;2.98;79.93;93010.16;5028604;28;20045;-66
2021/12/01 06:25:20;;;;;;;1.88;1.00;;;;;;;2.94;80.28;93003.97;5027941;28;20108;-66
2021/12/01 06:27:52;;;;;;;2.10;0.70;;;;;;;2.95;80.39;92999.31;5028620;28;20064;-66
2021/12/01 06:30:21;;;;;;;1.80;0.68;;;;;;;2.97;80.31;92988.88;5010320;28;20123;-67
2021/12/01 06:32:48;;;;;;;4.50;1.87;;;;;;;2.99;80.04;92997.38;5028633;28;20048;-67
2021/12/01 06:35:15;;;;;;;2.08;0.60;;;;;;;3.00;80.30;92993.53;5027721;28;20049;-65
2021/12/01 06:37:43;;;;;;;1.80;0.90;;;;;;;3.05;80.56;92989.63;5028360;28;20115;-67
2021/12/01 06:40:11;;;;;;;2.60;1.10;;;;;;;3.05;79.95;92998.53;5028222;28;20065;-65
2021/12/01 06:42:37;;;;;;;2.60;1.05;;;;;;;3.06;80.63;92983.81;5027830;28;20045;-66
2021/12/01 06:45:07;;;;;;;1.90;0.83;;;;;;;3.05;80.83;92990.41;5010627;28;20126;-67
2021/12/01 06:47:33;;;;;;;1.90;0.55;;;;;;;3.11;80.37;92972.56;5027273;28;20053;-65
2021/12/01 06:50:01;;;;;;;1.80;0.85;;;;;;;3.11;80.32;92983.41;5028096;28;20061;-67
2021/12/01 06:52:28;;;;;;;3.60;1.30;;;;;;;3.09;80.77;92977.63;5027327;28;20045;-68
2021/12/01 06:54:56;;;;;;;2.20;0.70;;;;;;;3.13;80.71;92970.25;5028220;28;20172;-65
2021/12/01 06:57:24;;;;;;;2.33;0.60;;;;;;;3.10;80.46;92971.03;5027478;28;20115;-65
2021/12/01 06:59:51;;;;;;;1.60;0.70;;;;;;;3.18;80.50;92978.00;5028464;28;20052;-66
2021/12/01 07:02:17;;;;;;;2.47;0.90;;;;;;;3.24;80.30;92969.44;5027389;28;20096;-65
2021/12/01 07:04:44;;;;;;;2.13;0.70;;;;;;;3.21;80.52;92968.28;5028501;28;20034;-67
2021/12/01 07:07:12;;;;;;;1.70;0.70;;;;;;;3.22;80.67;92971.75;5031892;28;20045;-65
2021/12/01 07:09:39;;;;;;;2.10;0.87;;;;;;;3.20;80.66;92972.94;5031725;28;20041;-66
2021/12/01 07:12:06;;;;;;;1.50;0.60;;;;;;;3.20;80.24;92962.09;5032178;28;20041;-67
2021/12/01 07:14:33;;;;;;;2.00;0.82;;;;;;;3.28;80.53;92962.06;5031411;28;20053;-67
2021/12/01 07:17:00;;;;;;;1.65;0.60;;;;;;;3.34;80.77;92955.88;5032007;28;20518;-66
2021/12/01 07:19:26;;;;;;;2.30;0.90;;;;;;;3.37;80.46;92955.06;5030790;28;20144;-65
2021/12/01 07:21:53;;;;;;;1.40;0.47;;;;;;;3.35;79.85;92943.84;5032011;28;20090;-67
2021/12/01 07:24:20;;;;;;;1.42;0.52;;;;;;;3.45;79.89;92938.78;5031071;28;20046;-67
2021/12/01 07:26:46;;;;;;;2.83;0.70;;;;;;;3.37;80.60;92938.03;5013805;28;20486;-67
2021/12/01 07:29:13;;;;;;;1.75;0.52;;;;;;;3.43;79.94;92928.31;5031429;28;20069;-65
2021/12/01 07:31:40;;;;;;;1.75;0.95;;;;;;;3.35;80.19;92922.13;5031365;28;20064;-66
2021/12/01 07:34:07;;;;;;;1.67;0.53;;;;;;;3.39;79.96;92916.72;5014213;28;20037;-68
2021/12/01 07:36:34;;;;;;;3.17;1.70;;;;;;;3.50;80.03;92901.16;5030974;28;20498;-69
2021/12/01 07:39:01;;;;;;;2.13;0.60;;;;;;;3.53;80.03;92896.88;5031709;28;20037;-68
2021/12/01 07:41:28;;;;;;;1.70;0.60;;;;;;;3.50;80.03;92892.22;5031092;28;20083;-68
2021/12/01 07:43:55;;;;;;;1.67;0.80;;;;;;;3.46;79.65;92913.19;5031613;28;20100;-68
2021/12/01 07:46:21;;;;;;;29.47;17.87;;;;;;;3.55;80.27;92906.16;5030826;28;20580;-68
2021/12/01 07:48:48;;;;;;;8.68;5.35;;;;;;;3.47;79.93;92893.81;5031284;28;20045;-67
2021/12/01 07:51:15;;;;;;;3.38;1.92;;;;;;;3.45;80.20;92893.44;5029606;28;20037;-66
2021/12/01 07:53:42;;;;;;;3.20;1.60;;;;;;;3.43;80.69;92890.34;5013763;28;20041;-68
2021/12/01 07:56:09;;;;;;;2.28;1.13;;;;;;;3.39;80.23;92882.22;5030142;28;20049;-68
2021/12/01 07:58:35;;;;;;;1.67;0.70;;;;;;;3.34;81.01;92873.72;5030946;28;20127;-69
2021/12/01 08:01:02;;;;;;;2.10;0.80;;;;;;;3.39;80.84;92857.81;5031288;28;20049;-68
2021/12/01 08:03:29;;;;;;;1.73;0.80;;;;;;;3.55;79.92;92848.44;5030482;28;20220;-68
2021/12/01 08:05:56;;;;;;;2.13;1.00;;;;;;;3.72;80.02;92863.03;5031139;28;20053;-67
2021/12/01 08:08:23;;;;;;;3.67;2.42;;;;;;;3.90;78.89;92852.84;5015039;28;20056;-66
2021/12/01 08:10:49;;;;;;;2.50;1.47;;;;;;;4.26;77.43;92852.56;5027666;28;20065;-66
2021/12/01 08:13:16;;;;;;;1.58;0.50;;;;;;;4.24;77.28;92846.75;5029242;28;20059;-67
2021/12/01 08:15:50;;;;;;;1.40;0.40;;;;;;;4.19;77.59;92839.81;5030104;28;20057;-67
2021/12/01 08:18:17;;;;;;;2.17;0.73;;;;;;;4.15;77.58;92832.88;5028487;28;20135;-67
2021/12/01 08:20:45;;;;;;;1.70;0.63;;;;;;;3.99;77.78;92847.75;5030707;28;20049;-65
2021/12/01 08:23:12;;;;;;;3.07;1.63;;;;;;;4.10;78.77;92838.72;5030487;28;20065;-61
2021/12/01 08:25:39;;;;;;;2.28;1.02;;;;;;;4.48;76.36;92850.41;5030477;28;20056;-67
2021/12/01 08:28:06;;;;;;;3.10;1.80;;;;;;;4.71;75.45;92836.22;5030234;28;20095;-67
2021/12/01 08:30:33;;;;;;;2.55;1.33;;;;;;;4.75;75.12;92823.38;5029807;28;20049;-67
2021/12/01 08:33:01;;;;;;;1.58;0.57;;;;;;;4.76;75.29;92827.63;5029271;28;20042;-68
2021/12/01 08:35:27;;;;;;;5.27;3.33;;;;;;;4.73;75.92;92833.88;5030054;28;20080;-66
2021/12/01 08:37:55;;;;;;;6.15;3.70;;;;;;;4.72;75.21;92820.69;5012807;28;20041;-64
2021/12/01 08:40:22;;;;;;;3.10;1.67;;;;;;;4.77;74.49;92802.00;5029707;28;20045;-65
2021/12/01 08:42:49;;;;;;;3.10;1.60;;;;;;;4.54;75.67;92808.03;5030219;28;20092;-67
2021/12/01 08:45:17;;;;;;;3.10;1.92;;;;;;;4.42;75.47;92816.72;5029750;28;20049;-66
2021/12/01 08:47:44;;;;;;;2.90;1.20;;;;;;;4.59;75.41;92810.34;5030232;28;20052;-66
2021/12/01 08:50:11;;;;;;;3.95;2.25;;;;;;;4.69;74.84;92805.97;5029180;28;20510;-66
2021/12/01 08:52:39;;;;;;;3.70;2.13;;;;;;;4.85;75.43;92821.72;5029739;28;20095;-68
2021/12/01 08:55:07;;;;;;;4.03;1.67;;;;;;;5.15;73.06;92803.84;5012690;28;20103;-66
2021/12/01 08:57:34;;;;;;;3.85;2.30;;;;;;;5.01;73.42;92804.84;5029554;28;20045;-65
2021/12/01 09:00:01;;;;;;;4.47;2.63;;;;;;;4.94;74.20;92805.66;5030437;28;20087;-66
2021/12/01 09:02:27;;;;;;;4.47;2.60;;;;;;;4.83;74.21;92804.25;5029361;28;20049;-66
2021/12/01 09:04:54;;;;;;;5.70;3.35;;;;;;;4.66;74.55;92795.91;5030140;28;20133;-65
2021/12/01 09:07:21;;;;;;;5.25;3.10;;;;;;;5.03;73.09;92798.97;5028131;28;20318;-66
2021/12/01 09:09:48;;;;;;;4.82;2.75;;;;;;;5.43;71.58;92791.81;5028843;28;20037;-65
2021/12/01 09:12:19;;;;;;;5.13;2.57;;;;;;;7.24;65.87;92787.56;5029358;28;20065;-65
2021/12/01 09:14:46;;;;;;;4.43;2.38;;;;;;;6.67;67.40;92784.78;5012250;28;20041;-67
2021/12/01 09:17:13;;;;;;;3.70;2.00;;;;;;;8.00;62.43;92780.00;5012095;28;20190;-65
2021/12/01 09:19:40;;;;;;;3.65;1.88;;;;;;;9.31;60.57;92786.44;5029239;28;20561;-66
2021/12/01 09:22:07;;;;;;;4.68;1.70;;;;;;;7.79;62.43;92781.28;5029582;28;20092;-67
2021/12/01 09:24:34;;;;;;;3.23;1.67;;;;;;;7.27;65.11;92773.09;5011072;28;20045;-66
2021/12/01 09:27:01;;;;;;;2.75;1.33;;;;;;;6.21;68.31;92783.66;5029354;28;20053;-66
2021/12/01 09:29:29;;;;;;;2.83;1.42;;;;;;;5.44;71.39;92787.94;5028499;28;20080;-66
2021/12/01 09:31:57;;;;;;;2.85;1.67;;;;;;;5.24;72.78;92774.22;5028291;28;20506;-66
2021/12/01 09:34:25;;;;;;;3.40;1.80;;;;;;;5.45;72.17;92777.81;5028698;28;20057;-66
2021/12/01 09:36:51;;;;;;;6.97;3.00;;;;;;;5.25;74.01;92775.78;5029572;28;20115;-65
2021/12/01 09:39:18;;;;;;;2.78;1.30;;;;;;;5.19;74.27;92769.22;5028815;28;20100;-66
2021/12/01 09:41:45;;;;;;;4.97;2.00;;;;;;;5.26;74.10;92768.38;5029395;28;20434;-64
2021/12/01 09:44:12;;;;;;;3.90;1.40;;;;;;;5.26;74.42;92766.41;5029441;28;20076;-65
2021/12/01 09:46:38;;;;;;;4.85;2.95;;;;;;;4.97;74.94;92757.84;5028438;28;20049;-66
2021/12/01 09:49:05;;;;;;;4.60;2.50;;;;;;;4.88;75.67;92765.75;5029141;28;20091;-66
2021/12/01 09:51:32;;;;;;;5.63;3.85;;;;;;;4.86;75.21;92757.25;5028346;28;20080;-64
2021/12/01 09:54:00;;;;;;;5.70;3.00;;;;;;;4.60;76.97;92745.88;5029154;28;20072;-64
2021/12/01 09:56:28;;;;;;;5.55;3.30;;;;;;;4.79;76.04;92737.13;5028118;28;20072;-65
2021/12/01 09:58:56;;;;;;;6.00;3.67;;;;;;;5.40;73.65;92733.56;5029187;28;20045;-65
2021/12/01 10:01:24;;;;;;;5.57;3.13;;;;;;;5.67;72.40;92732.00;5028257;28;20061;-65
2021/12/01 10:03:52;;;;;;;5.07;2.90;;;;;;;6.38;69.82;92709.00;5029042;28;20072;-66
2021/12/01 10:06:24;;;;;;;6.20;3.45;;;;;;;5.49;72.81;92705.81;5028251;28;20041;-65
2021/12/01 10:09:05;;;;;;;5.95;3.22;;;;;;;5.37;73.79;92709.13;5028983;28;20045;-65
2021/12/01 10:11:34;;;;;;;5.65;3.42;;;;;;;5.39;73.37;92699.41;5028133;28;20514;-66
2021/12/01 10:14:06;;;;;;;5.03;3.03;;;;;;;5.24;74.03;92689.91;5028949;28;20095;-66
2021/12/01 10:16:36;;;;;;;5.93;3.35;;;;;;;4.62;76.25;92683.75;5028043;28;20053;-64
2021/12/01 10:19:07;;;;;;;5.93;3.70;;;;;;;4.73;76.95;92676.25;5028421;28;20092;-66
2021/12/01 10:21:39;;;;;;;4.72;2.67;;;;;;;5.28;75.01;92671.56;5028039;28;20450;-67
2021/12/01 10:24:34;;;;;;;5.78;2.80;;;;;;;5.64;73.46;92656.63;5028860;28;20453;-67
2021/12/01 10:27:04;;;;;;;6.60;3.43;;;;;;;5.51;74.04;92648.28;5026531;28;20045;-67
2021/12/01 10:29:35;;;;;;;6.07;2.90;;;;;;;5.26;75.60;92648.69;5027721;28;20107;-66
2021/12/01 10:32:14;;;;;;;4.72;2.55;;;;;;;5.37;75.03;92627.50;5028685;28;20045;-67
2021/12/01 10:34:57;;;;;;;7.00;3.70;;;;;;;4.89;77.40;92637.59;5027755;28;20041;-66
2021/12/01 10:37:29;;;;;;;4.47;2.50;;;;;;;4.62;77.69;92628.66;5027726;28;20045;-67
2021/12/01 10:40:18;;;;;;;4.53;2.90;;;;;;;4.64;77.78;92612.72;5027683;28;20041;-65
2021/12/01 10:43:01;;;;;;;5.32;2.70;;;;;;;4.37;77.83;92602.59;5027940;28;20037;-65
2021/12/01 10:45:34;;;;;;;8.40;4.07;;;;;;;4.74;76.75;92606.34;5027668;28;20368;-67
2021/12/01 10:48:03;;;;;;;5.15;3.13;;;;;;;4.74;75.99;92596.25;5028242;28;20106;-67
2021/12/01 10:50:33;;;;;;;5.03;3.10;;;;;;;4.81;76.48;92587.22;5027358;28;20046;-67
2021/12/01 10:53:09;;;;;;;5.17;3.00;;;;;;;4.81;76.23;92576.34;5028139;28;20116;-65
2021/12/01 10:55:44;;;;;;;4.35;2.72;;;;;;;4.99;75.58;92573.38;5027378;28;20102;-67
2021/12/01 10:58:11;;;;;;;5.78;3.30;;;;;;;4.97;75.85;92565.63;5028350;28;20051;-66
2021/12/01 11:00:41;;;;;;;7.07;3.10;;;;;;;4.98;76.07;92560.94;5027403;28;20622;-66
2021/12/01 11:03:20;;;;;;;4.38;2.60;;;;;;;5.06;77.02;92545.28;5027990;28;20045;-66
2021/12/01 11:05:50;;;;;;;4.90;2.10;;;;;;;5.24;75.58;92544.97;5027826;28;20148;-66
2021/12/01 11:08:19;;;;;;;4.30;2.00;;;;;;;5.22;75.97;92550.84;5009826;28;20132;-67
2021/12/01 11:10:56;;;;;;;4.50;2.30;;;;;;;5.27;76.14;92530.53;5028271;28;20041;-67
2021/12/01 11:13:24;;;;;;;3.90;2.17;;;;;;;5.35;76.20;92538.19;5027099;28;20049;-67
2021/12/01 11:15:57;;;;;;;6.78;3.58;;;;;;;5.35;76.29;92521.06;5010609;28;20037;-66
2021/12/01 11:18:52;;;;;;;4.73;1.97;;;;;;;5.22;76.36;92526.34;5027000;28;20655;-66
2021/12/01 11:21:23;;;;;;;4.82;2.40;;;;;;;5.17;76.67;92529.53;5027416;28;20140;-61
2021/12/01 11:23:56;;;;;;;4.40;1.98;;;;;;;5.11;76.63;92520.31;5028110;28;20045;-67
2021/12/01 11:26:26;;;;;;;4.35;2.25;;;;;;;5.08;77.44;92515.72;5027060;28;20049;-67
2021/12/01 11:28:55;;;;;;;3.97;2.03;;;;;;;5.10;76.97;92508.69;5028052;28;20103;-67
2021/12/01 11:31:29;;;;;;;5.10;1.80;;;;;;;5.30;76.22;92505.25;5027589;28;20052;-66
2021/12/01 11:34:00;;;;;;;3.35;1.73;;;;;;;5.48;75.52;92492.06;5027982;28;20049;-67
2021/12/01 11:36:39;;;;;;;4.03;2.10;;;;;;;5.54;75.65;92481.47;5027109;28;20456;-67
2021/12/01 11:39:10;;;;;;;3.67;2.10;;;;;;;5.46;76.19;92478.13;5027934;28;20112;-66
2021/12/01 11:41:43;;;;;;;3.78;2.08;;;;;;;5.51;76.35;92476.84;5026966;28;20485;-65
2021/12/01 11:44:12;;;;;;;4.87;2.73;;;;;;;5.86;75.32;92463.75;5028010;28;20041;-69
2021/12/01 11:46:40;;;;;;;4.32;1.98;;;;;;;5.88;74.76;92453.94;5027151;28;20053;-67
2021/12/01 11:49:10;;;;;;;7.00;2.80;;;;;;;5.84;74.65;92455.97;5026545;28;20044;-67
2021/12/01 11:51:46;;;;;;;3.90;1.77;;;;;;;5.86;74.44;92447.41;5028163;28;20053;-67
2021/12/01 11:54:16;;;;;;;3.80;1.83;;;;;;;5.68;74.59;92445.81;5031729;28;20045;-67
2021/12/01 11:56:59;;;;;;;3.30;1.80;;;;;;;5.62;75.12;92444.78;5031001;28;20407;-67
2021/12/01 11:59:28;;;;;;;6.65;2.90;;;;;;;5.80;75.14;92439.72;5030538;28;20099;-67